Columbus, Ohio
Traffic Map
Current Weather Conditions
Columbus, Ohio
Clear
Clear

Feels Like: 5°
Wind Chill: Ceiling: Unl
Heat Index: Visibility: 9mi
Dew Point: Wind: 3mph
Humidity: 84% Direction: 120° (ESE)
Pressure: 30.53in Gusts: 0mph
Raw Report DataKCMH 061051Z 12003KT 9SM CLR M15/M17 A3053 RMK AO2 SLP356 T11501172
Traffic Incident Summary
Active as of:
Severity:
Category:
InformationThere was an issue retrieving the traffic information for this location. Please try a different location or try again shortly.
Advertisements
Track Severe Weather on mobile